sensor_id;sensor_type;location;lat;lon;timestamp;temperature;humidity
14349;DHT22;7258;50.376;8.742;2023-04-06T00:00:44;0.30;99.90
14349;DHT22;7258;50.376;8.742;2023-04-06T00:02:47;0.20;99.90
14349;DHT22;7258;50.376;8.742;2023-04-06T00:04:50;0.20;99.90
14349;DHT22;7258;50.376;8.742;2023-04-06T00:06:53;0.10;99.90
14349;DHT22;7258;50.376;8.742;2023-04-06T00:08:56;0.10;99.90
14349;DHT22;7258;50.376;8.742;2023-04-06T00:10:59;0.10;99.90
14349;DHT22;7258;50.376;8.742;2023-04-06T00:13:02;0.10;99.90
14349;DHT22;7258;50.376;8.742;2023-04-06T00:15:07;0.10;99.90
14349;DHT22;7258;50.376;8.742;2023-04-06T00:17:12;0.10;99.90
14349;DHT22;7258;50.376;8.742;2023-04-06T00:19:15;0.10;99.90
14349;DHT22;7258;50.376;8.742;2023-04-06T00:21:18;0.00;99.90
14349;DHT22;7258;50.376;8.742;2023-04-06T00:23:22;0.00;99.90
14349;DHT22;7258;50.376;8.742;2023-04-06T00:25:25;0.00;99.90
14349;DHT22;7258;50.376;8.742;2023-04-06T00:27:28;0.00;99.90
14349;DHT22;7258;50.376;8.742;2023-04-06T00:29:31;-0.10;99.90
14349;DHT22;7258;50.376;8.742;2023-04-06T00:31:34;-0.10;99.90
14349;DHT22;7258;50.376;8.742;2023-04-06T00:33:38;-0.10;99.90
14349;DHT22;7258;50.376;8.742;2023-04-06T00:35:41;-0.20;99.90
14349;DHT22;7258;50.376;8.742;2023-04-06T00:37:46;-0.20;99.90
14349;DHT22;7258;50.376;8.742;2023-04-06T00:39:49;-0.20;99.90
14349;DHT22;7258;50.376;8.742;2023-04-06T00:41:53;-0.20;99.90
14349;DHT22;7258;50.376;8.742;2023-04-06T00:43:56;-0.20;99.90
14349;DHT22;7258;50.376;8.742;2023-04-06T00:45:59;-0.20;99.90
14349;DHT22;7258;50.376;8.742;2023-04-06T00:48:03;-0.30;99.90
14349;DHT22;7258;50.376;8.742;2023-04-06T00:50:08;-0.30;99.90
14349;DHT22;7258;50.376;8.742;2023-04-06T00:52:11;-0.30;99.90
14349;DHT22;7258;50.376;8.742;2023-04-06T00:54:15;-0.30;99.90
14349;DHT22;7258;50.376;8.742;2023-04-06T00:56:18;-0.30;99.90
14349;DHT22;7258;50.376;8.742;2023-04-06T00:58:21;-0.40;99.90
14349;DHT22;7258;50.376;8.742;2023-04-06T01:00:24;-0.40;99.90
14349;DHT22;7258;50.376;8.742;2023-04-06T01:02:27;-0.40;99.90
14349;DHT22;7258;50.376;8.742;2023-04-06T01:04:32;-0.40;99.90
14349;DHT22;7258;50.376;8.742;2023-04-06T01:06:36;-0.50;99.90
14349;DHT22;7258;50.376;8.742;2023-04-06T01:08:39;-0.50;99.90
14349;DHT22;7258;50.376;8.742;2023-04-06T01:10:42;-0.50;99.90
14349;DHT22;7258;50.376;8.742;2023-04-06T01:12:46;-0.50;99.90
14349;DHT22;7258;50.376;8.742;2023-04-06T01:14:49;-0.50;99.90
14349;DHT22;7258;50.376;8.742;2023-04-06T01:16:53;-0.60;99.90
14349;DHT22;7258;50.376;8.742;2023-04-06T01:18:59;-0.60;99.90
14349;DHT22;7258;50.376;8.742;2023-04-06T01:21:02;-0.60;99.90
14349;DHT22;7258;50.376;8.742;2023-04-06T01:23:10;-0.50;99.90
14349;DHT22;7258;50.376;8.742;2023-04-06T01:25:13;-0.50;99.90
14349;DHT22;7258;50.376;8.742;2023-04-06T01:27:16;-0.50;99.90
14349;DHT22;7258;50.376;8.742;2023-04-06T01:29:19;-0.50;99.90
14349;DHT22;7258;50.376;8.742;2023-04-06T01:31:23;-0.60;99.90
14349;DHT22;7258;50.376;8.742;2023-04-06T01:33:26;-0.60;99.90
14349;DHT22;7258;50.376;8.742;2023-04-06T01:35:30;-0.60;99.90
14349;DHT22;7258;50.376;8.742;2023-04-06T01:37:33;-0.60;99.90
14349;DHT22;7258;50.376;8.742;2023-04-06T01:39:37;-0.70;99.90
14349;DHT22;7258;50.376;8.742;2023-04-06T01:41:41;-0.70;99.90
14349;DHT22;7258;50.376;8.742;2023-04-06T01:43:46;-0.70;99.90
14349;DHT22;7258;50.376;8.742;2023-04-06T01:45:50;-0.70;99.90
14349;DHT22;7258;50.376;8.742;2023-04-06T01:47:52;-0.80;99.90
14349;DHT22;7258;50.376;8.742;2023-04-06T01:49:56;-0.80;99.90
14349;DHT22;7258;50.376;8.742;2023-04-06T01:51:59;-0.90;99.90
14349;DHT22;7258;50.376;8.742;2023-04-06T01:54:02;-0.90;99.90
14349;DHT22;7258;50.376;8.742;2023-04-06T01:56:07;-1.00;99.90
14349;DHT22;7258;50.376;8.742;2023-04-06T01:58:10;-1.00;99.90
14349;DHT22;7258;50.376;8.742;2023-04-06T02:00:14;-1.00;99.90
14349;DHT22;7258;50.376;8.742;2023-04-06T02:02:17;-1.00;99.90
14349;DHT22;7258;50.376;8.742;2023-04-06T02:04:20;-1.00;99.90
14349;DHT22;7258;50.376;8.742;2023-04-06T02:06:23;-1.00;99.90
14349;DHT22;7258;50.376;8.742;2023-04-06T02:08:26;-1.10;99.90
14349;DHT22;7258;50.376;8.742;2023-04-06T02:10:29;-1.10;99.90
14349;DHT22;7258;50.376;8.742;2023-04-06T02:12:33;-1.10;99.90
14349;DHT22;7258;50.376;8.742;2023-04-06T02:14:36;-1.10;99.90
14349;DHT22;7258;50.376;8.742;2023-04-06T02:16:39;-1.10;99.90
14349;DHT22;7258;50.376;8.742;2023-04-06T02:18:42;-1.10;99.90
14349;DHT22;7258;50.376;8.742;2023-04-06T02:20:46;-1.20;99.90
14349;DHT22;7258;50.376;8.742;2023-04-06T02:22:49;-1.20;99.90
14349;DHT22;7258;50.376;8.742;2023-04-06T02:24:52;-1.20;99.90
14349;DHT22;7258;50.376;8.742;2023-04-06T02:26:55;-1.20;99.90
14349;DHT22;7258;50.376;8.742;2023-04-06T02:28:59;-1.20;99.90
14349;DHT22;7258;50.376;8.742;2023-04-06T02:31:03;-1.20;99.90
14349;DHT22;7258;50.376;8.742;2023-04-06T02:33:06;-1.30;99.90
14349;DHT22;7258;50.376;8.742;2023-04-06T02:35:09;-1.30;99.90
14349;DHT22;7258;50.376;8.742;2023-04-06T02:37:12;-1.30;99.90
14349;DHT22;7258;50.376;8.742;2023-04-06T02:39:15;-1.30;99.90
14349;DHT22;7258;50.376;8.742;2023-04-06T02:41:18;-1.40;99.90
14349;DHT22;7258;50.376;8.742;2023-04-06T02:43:21;-1.40;99.90
14349;DHT22;7258;50.376;8.742;2023-04-06T02:45:26;-1.40;99.90
14349;DHT22;7258;50.376;8.742;2023-04-06T02:47:29;-1.40;99.90
14349;DHT22;7258;50.376;8.742;2023-04-06T02:49:32;-1.40;99.90
14349;DHT22;7258;50.376;8.742;2023-04-06T02:51:35;-1.50;99.90
14349;DHT22;7258;50.376;8.742;2023-04-06T02:53:38;-1.50;99.90
14349;DHT22;7258;50.376;8.742;2023-04-06T02:55:41;-1.50;99.90
14349;DHT22;7258;50.376;8.742;2023-04-06T02:57:44;-1.50;99.90
14349;DHT22;7258;50.376;8.742;2023-04-06T02:59:47;-1.60;99.90
14349;DHT22;7258;50.376;8.742;2023-04-06T03:01:51;-1.60;99.90
14349;DHT22;7258;50.376;8.742;2023-04-06T03:03:54;-1.60;99.90
14349;DHT22;7258;50.376;8.742;2023-04-06T03:05:57;-1.60;99.90
14349;DHT22;7258;50.376;8.742;2023-04-06T03:08:01;-1.60;99.90
14349;DHT22;7258;50.376;8.742;2023-04-06T03:10:05;-1.60;99.90
14349;DHT22;7258;50.376;8.742;2023-04-06T03:12:08;-1.70;99.90
14349;DHT22;7258;50.376;8.742;2023-04-06T03:14:14;-1.70;99.90
14349;DHT22;7258;50.376;8.742;2023-04-06T03:16:18;-1.70;99.90
14349;DHT22;7258;50.376;8.742;2023-04-06T03:18:24;-1.70;99.90
14349;DHT22;7258;50.376;8.742;2023-04-06T03:20:28;-1.70;99.90
14349;DHT22;7258;50.376;8.742;2023-04-06T03:22:31;-1.80;99.90
14349;DHT22;7258;50.376;8.742;2023-04-06T03:24:34;-1.80;99.90
14349;DHT22;7258;50.376;8.742;2023-04-06T03:26:37;-1.80;99.90
14349;DHT22;7258;50.376;8.742;2023-04-06T03:28:39;-1.80;99.90
14349;DHT22;7258;50.376;8.742;2023-04-06T03:30:43;-1.90;99.90
14349;DHT22;7258;50.376;8.742;2023-04-06T03:32:46;-1.90;99.90
14349;DHT22;7258;50.376;8.742;2023-04-06T03:34:50;-1.90;99.90
14349;DHT22;7258;50.376;8.742;2023-04-06T03:36:53;-1.90;99.90
14349;DHT22;7258;50.376;8.742;2023-04-06T03:39:10;-2.00;99.90
14349;DHT22;7258;50.376;8.742;2023-04-06T03:41:13;-2.00;99.90
14349;DHT22;7258;50.376;8.742;2023-04-06T03:43:18;-2.00;99.90
14349;DHT22;7258;50.376;8.742;2023-04-06T03:45:21;-2.00;99.90
14349;DHT22;7258;50.376;8.742;2023-04-06T03:47:24;-2.00;99.90
14349;DHT22;7258;50.376;8.742;2023-04-06T03:49:27;-2.00;99.90
14349;DHT22;7258;50.376;8.742;2023-04-06T03:51:31;-2.10;99.90
14349;DHT22;7258;50.376;8.742;2023-04-06T03:53:34;-2.10;99.90
14349;DHT22;7258;50.376;8.742;2023-04-06T03:55:38;-2.10;99.90
14349;DHT22;7258;50.376;8.742;2023-04-06T03:57:41;-2.10;99.90
14349;DHT22;7258;50.376;8.742;2023-04-06T03:59:44;-2.10;99.90
14349;DHT22;7258;50.376;8.742;2023-04-06T04:01:47;-2.10;99.90
14349;DHT22;7258;50.376;8.742;2023-04-06T04:03:50;-2.10;99.90
14349;DHT22;7258;50.376;8.742;2023-04-06T04:05:54;-2.20;99.90
14349;DHT22;7258;50.376;8.742;2023-04-06T04:07:59;-2.10;99.90
14349;DHT22;7258;50.376;8.742;2023-04-06T04:10:02;-2.10;99.90
14349;DHT22;7258;50.376;8.742;2023-04-06T04:12:05;-2.10;99.90
14349;DHT22;7258;50.376;8.742;2023-04-06T04:14:08;-2.20;99.90
14349;DHT22;7258;50.376;8.742;2023-04-06T04:16:11;-2.20;99.90
14349;DHT22;7258;50.376;8.742;2023-04-06T04:18:15;-2.20;99.90
14349;DHT22;7258;50.376;8.742;2023-04-06T04:20:19;-2.20;99.90
14349;DHT22;7258;50.376;8.742;2023-04-06T04:22:22;-2.30;99.90
14349;DHT22;7258;50.376;8.742;2023-04-06T04:24:26;-2.30;99.90
14349;DHT22;7258;50.376;8.742;2023-04-06T04:26:29;-2.30;99.90
14349;DHT22;7258;50.376;8.742;2023-04-06T04:28:32;-2.30;99.90
14349;DHT22;7258;50.376;8.742;2023-04-06T04:30:35;-2.30;99.90
14349;DHT22;7258;50.376;8.742;2023-04-06T04:32:38;-2.40;99.90
14349;DHT22;7258;50.376;8.742;2023-04-06T04:34:41;-2.40;99.90
14349;DHT22;7258;50.376;8.742;2023-04-06T04:36:44;-2.40;99.90
14349;DHT22;7258;50.376;8.742;2023-04-06T04:38:47;-2.40;99.90
14349;DHT22;7258;50.376;8.742;2023-04-06T04:40:52;-2.40;99.90
14349;DHT22;7258;50.376;8.742;2023-04-06T04:42:54;-2.40;99.90
14349;DHT22;7258;50.376;8.742;2023-04-06T04:44:57;-2.40;99.90
14349;DHT22;7258;50.376;8.742;2023-04-06T04:47:02;-2.40;99.90
14349;DHT22;7258;50.376;8.742;2023-04-06T04:49:05;-2.40;99.90
14349;DHT22;7258;50.376;8.742;2023-04-06T04:51:08;-2.40;99.90
14349;DHT22;7258;50.376;8.742;2023-04-06T04:53:11;-2.40;99.90
14349;DHT22;7258;50.376;8.742;2023-04-06T04:55:14;-2.40;99.90
14349;DHT22;7258;50.376;8.742;2023-04-06T04:57:19;-2.40;99.90
14349;DHT22;7258;50.376;8.742;2023-04-06T04:59:22;-2.40;99.90
14349;DHT22;7258;50.376;8.742;2023-04-06T05:01:27;-2.40;99.90
14349;DHT22;7258;50.376;8.742;2023-04-06T05:03:34;-2.40;99.90
14349;DHT22;7258;50.376;8.742;2023-04-06T05:05:37;-2.40;99.90
14349;DHT22;7258;50.376;8.742;2023-04-06T05:07:40;-2.40;99.90
14349;DHT22;7258;50.376;8.742;2023-04-06T05:09:52;-2.40;99.90
14349;DHT22;7258;50.376;8.742;2023-04-06T05:12:21;-2.30;99.90
14349;DHT22;7258;50.376;8.742;2023-04-06T05:14:54;-2.30;99.90
14349;DHT22;7258;50.376;8.742;2023-04-06T05:17:35;-2.30;99.90
14349;DHT22;7258;50.376;8.742;2023-04-06T05:19:48;-2.30;99.90
14349;DHT22;7258;50.376;8.742;2023-04-06T05:22:06;-2.20;99.90
14349;DHT22;7258;50.376;8.742;2023-04-06T05:24:42;-2.20;99.90
14349;DHT22;7258;50.376;8.742;2023-04-06T05:27:36;-2.20;99.90
14349;DHT22;7258;50.376;8.742;2023-04-06T05:30:03;-2.10;99.90
14349;DHT22;7258;50.376;8.742;2023-04-06T05:32:17;-2.00;99.90
14349;DHT22;7258;50.376;8.742;2023-04-06T05:34:27;-2.00;99.90
14349;DHT22;7258;50.376;8.742;2023-04-06T05:36:58;-1.90;99.90
14349;DHT22;7258;50.376;8.742;2023-04-06T05:39:08;-1.90;99.90
14349;DHT22;7258;50.376;8.742;2023-04-06T05:41:30;-1.80;99.90
14349;DHT22;7258;50.376;8.742;2023-04-06T05:44:04;-1.80;99.90
14349;DHT22;7258;50.376;8.742;2023-04-06T05:46:54;-1.70;99.90
14349;DHT22;7258;50.376;8.742;2023-04-06T05:49:28;-1.60;99.90
14349;DHT22;7258;50.376;8.742;2023-04-06T05:52:20;-1.60;99.90
14349;DHT22;7258;50.376;8.742;2023-04-06T05:54:40;-1.50;99.90
14349;DHT22;7258;50.376;8.742;2023-04-06T06:02:56;-1.20;99.90
14349;DHT22;7258;50.376;8.742;2023-04-06T06:05:26;-1.10;99.90
14349;DHT22;7258;50.376;8.742;2023-04-06T06:07:32;-0.90;99.90
14349;DHT22;7258;50.376;8.742;2023-04-06T06:09:38;-0.80;99.90
14349;DHT22;7258;50.376;8.742;2023-04-06T06:11:41;-0.70;99.90
14349;DHT22;7258;50.376;8.742;2023-04-06T06:13:45;-0.50;99.90
14349;DHT22;7258;50.376;8.742;2023-04-06T06:15:53;-0.30;99.90
14349;DHT22;7258;50.376;8.742;2023-04-06T06:17:59;-0.20;99.90
14349;DHT22;7258;50.376;8.742;2023-04-06T06:20:10;0.00;99.90
14349;DHT22;7258;50.376;8.742;2023-04-06T06:22:18;0.20;99.90
14349;DHT22;7258;50.376;8.742;2023-04-06T06:24:35;0.30;99.90
14349;DHT22;7258;50.376;8.742;2023-04-06T06:26:39;0.50;99.90
14349;DHT22;7258;50.376;8.742;2023-04-06T06:28:42;0.70;99.90
14349;DHT22;7258;50.376;8.742;2023-04-06T06:30:45;0.80;99.90
14349;DHT22;7258;50.376;8.742;2023-04-06T06:32:50;1.00;99.90
14349;DHT22;7258;50.376;8.742;2023-04-06T06:34:54;1.20;99.90
14349;DHT22;7258;50.376;8.742;2023-04-06T06:36:58;1.30;99.90
14349;DHT22;7258;50.376;8.742;2023-04-06T06:39:06;1.50;99.90
14349;DHT22;7258;50.376;8.742;2023-04-06T06:41:10;1.60;99.90
14349;DHT22;7258;50.376;8.742;2023-04-06T06:43:13;1.70;99.90
14349;DHT22;7258;50.376;8.742;2023-04-06T06:45:17;1.80;99.90
14349;DHT22;7258;50.376;8.742;2023-04-06T06:47:20;1.90;99.90
14349;DHT22;7258;50.376;8.742;2023-04-06T06:49:23;2.00;99.90
14349;DHT22;7258;50.376;8.742;2023-04-06T06:51:28;2.10;99.90
14349;DHT22;7258;50.376;8.742;2023-04-06T06:53:31;2.20;99.90
14349;DHT22;7258;50.376;8.742;2023-04-06T06:55:34;2.30;99.90
14349;DHT22;7258;50.376;8.742;2023-04-06T06:57:38;2.40;99.90
14349;DHT22;7258;50.376;8.742;2023-04-06T06:59:44;2.50;99.90
14349;DHT22;7258;50.376;8.742;2023-04-06T07:01:47;2.60;99.90
14349;DHT22;7258;50.376;8.742;2023-04-06T07:03:51;2.80;99.90
14349;DHT22;7258;50.376;8.742;2023-04-06T07:05:59;2.80;99.90
14349;DHT22;7258;50.376;8.742;2023-04-06T07:08:04;2.90;99.90
14349;DHT22;7258;50.376;8.742;2023-04-06T07:10:12;3.00;99.90
14349;DHT22;7258;50.376;8.742;2023-04-06T07:12:17;3.00;99.90
14349;DHT22;7258;50.376;8.742;2023-04-06T07:14:28;3.10;99.90
14349;DHT22;7258;50.376;8.742;2023-04-06T07:16:34;3.20;99.90
14349;DHT22;7258;50.376;8.742;2023-04-06T07:18:39;3.30;99.90
14349;DHT22;7258;50.376;8.742;2023-04-06T07:20:42;3.40;99.90
14349;DHT22;7258;50.376;8.742;2023-04-06T07:22:45;3.50;99.90
14349;DHT22;7258;50.376;8.742;2023-04-06T07:24:56;3.60;99.90
14349;DHT22;7258;50.376;8.742;2023-04-06T07:27:03;3.70;99.90
14349;DHT22;7258;50.376;8.742;2023-04-06T07:29:09;3.80;99.90
14349;DHT22;7258;50.376;8.742;2023-04-06T07:31:12;3.90;99.90
14349;DHT22;7258;50.376;8.742;2023-04-06T07:33:15;4.00;99.90
14349;DHT22;7258;50.376;8.742;2023-04-06T07:35:18;4.10;99.90
14349;DHT22;7258;50.376;8.742;2023-04-06T07:37:25;4.20;99.90
14349;DHT22;7258;50.376;8.742;2023-04-06T07:39:31;4.30;99.90
14349;DHT22;7258;50.376;8.742;2023-04-06T07:41:41;4.40;99.90
14349;DHT22;7258;50.376;8.742;2023-04-06T07:43:44;4.50;99.90
14349;DHT22;7258;50.376;8.742;2023-04-06T07:45:47;4.50;99.90
14349;DHT22;7258;50.376;8.742;2023-04-06T07:47:50;4.60;99.90
14349;DHT22;7258;50.376;8.742;2023-04-06T07:49:56;4.70;99.90
14349;DHT22;7258;50.376;8.742;2023-04-06T07:52:00;4.80;99.90
14349;DHT22;7258;50.376;8.742;2023-04-06T07:54:06;4.90;99.90
14349;DHT22;7258;50.376;8.742;2023-04-06T07:56:50;5.10;99.90
14349;DHT22;7258;50.376;8.742;2023-04-06T07:58:53;5.30;99.90
14349;DHT22;7258;50.376;8.742;2023-04-06T08:00:58;5.40;99.90
14349;DHT22;7258;50.376;8.742;2023-04-06T08:03:01;5.50;99.90
14349;DHT22;7258;50.376;8.742;2023-04-06T08:05:05;5.60;99.90
14349;DHT22;7258;50.376;8.742;2023-04-06T08:07:08;5.80;99.90
14349;DHT22;7258;50.376;8.742;2023-04-06T08:09:11;5.90;99.90
14349;DHT22;7258;50.376;8.742;2023-04-06T08:11:15;5.90;99.90
14349;DHT22;7258;50.376;8.742;2023-04-06T08:13:19;6.00;99.90
14349;DHT22;7258;50.376;8.742;2023-04-06T08:15:23;6.10;99.90
14349;DHT22;7258;50.376;8.742;2023-04-06T08:17:26;6.20;99.90
14349;DHT22;7258;50.376;8.742;2023-04-06T08:19:32;6.30;99.90
14349;DHT22;7258;50.376;8.742;2023-04-06T08:21:36;6.30;99.90
14349;DHT22;7258;50.376;8.742;2023-04-06T08:23:39;6.40;99.90
14349;DHT22;7258;50.376;8.742;2023-04-06T08:25:42;6.50;99.90
14349;DHT22;7258;50.376;8.742;2023-04-06T08:27:46;6.60;99.90
14349;DHT22;7258;50.376;8.742;2023-04-06T08:29:50;6.60;99.90
14349;DHT22;7258;50.376;8.742;2023-04-06T08:31:54;6.80;99.90
14349;DHT22;7258;50.376;8.742;2023-04-06T08:33:59;6.90;99.90
14349;DHT22;7258;50.376;8.742;2023-04-06T08:36:10;7.10;99.90
14349;DHT22;7258;50.376;8.742;2023-04-06T08:38:13;7.10;99.90
14349;DHT22;7258;50.376;8.742;2023-04-06T08:40:18;7.20;99.90
14349;DHT22;7258;50.376;8.742;2023-04-06T08:42:25;7.20;99.90
14349;DHT22;7258;50.376;8.742;2023-04-06T08:44:29;7.30;99.90
14349;DHT22;7258;50.376;8.742;2023-04-06T08:46:34;7.40;99.90
14349;DHT22;7258;50.376;8.742;2023-04-06T08:48:38;7.40;99.90
14349;DHT22;7258;50.376;8.742;2023-04-06T08:50:43;7.50;99.90
14349;DHT22;7258;50.376;8.742;2023-04-06T08:52:47;7.60;99.30
14349;DHT22;7258;50.376;8.742;2023-04-06T08:54:51;7.60;99.80
14349;DHT22;7258;50.376;8.742;2023-04-06T08:56:54;7.60;99.90
14349;DHT22;7258;50.376;8.742;2023-04-06T08:58:58;7.70;99.90
14349;DHT22;7258;50.376;8.742;2023-04-06T09:01:20;7.80;99.90
14349;DHT22;7258;50.376;8.742;2023-04-06T09:03:26;7.90;99.60
14349;DHT22;7258;50.376;8.742;2023-04-06T09:05:30;7.90;99.90
14349;DHT22;7258;50.376;8.742;2023-04-06T09:07:34;8.00;99.90
14349;DHT22;7258;50.376;8.742;2023-04-06T09:09:37;8.10;99.60
14349;DHT22;7258;50.376;8.742;2023-04-06T09:11:46;8.20;99.40
14349;DHT22;7258;50.376;8.742;2023-04-06T09:13:50;8.20;99.20
14349;DHT22;7258;50.376;8.742;2023-04-06T09:16:01;8.30;99.20
14349;DHT22;7258;50.376;8.742;2023-04-06T09:18:04;8.30;98.70
14349;DHT22;7258;50.376;8.742;2023-04-06T09:20:09;8.40;99.40
14349;DHT22;7258;50.376;8.742;2023-04-06T09:22:12;8.60;98.90
14349;DHT22;7258;50.376;8.742;2023-04-06T09:24:15;8.70;98.60
14349;DHT22;7258;50.376;8.742;2023-04-06T09:26:22;8.80;98.20
14349;DHT22;7258;50.376;8.742;2023-04-06T09:28:26;8.90;97.50
14349;DHT22;7258;50.376;8.742;2023-04-06T09:30:29;8.80;97.30
14349;DHT22;7258;50.376;8.742;2023-04-06T09:32:43;8.90;97.40
14349;DHT22;7258;50.376;8.742;2023-04-06T09:34:46;8.90;96.70
14349;DHT22;7258;50.376;8.742;2023-04-06T09:36:53;8.90;96.40
14349;DHT22;7258;50.376;8.742;2023-04-06T09:38:57;9.00;96.80
14349;DHT22;7258;50.376;8.742;2023-04-06T09:41:00;9.10;97.30
14349;DHT22;7258;50.376;8.742;2023-04-06T09:43:04;9.30;97.40
14349;DHT22;7258;50.376;8.742;2023-04-06T09:45:09;9.40;96.90
14349;DHT22;7258;50.376;8.742;2023-04-06T09:47:13;9.60;97.30
14349;DHT22;7258;50.376;8.742;2023-04-06T09:49:19;9.70;97.30
14349;DHT22;7258;50.376;8.742;2023-04-06T09:51:23;9.80;97.00
14349;DHT22;7258;50.376;8.742;2023-04-06T09:53:31;9.90;96.90
14349;DHT22;7258;50.376;8.742;2023-04-06T09:55:40;9.90;96.40
14349;DHT22;7258;50.376;8.742;2023-04-06T09:57:50;10.10;96.20
14349;DHT22;7258;50.376;8.742;2023-04-06T10:00:00;10.20;96.70
14349;DHT22;7258;50.376;8.742;2023-04-06T10:02:05;10.30;95.70
14349;DHT22;7258;50.376;8.742;2023-04-06T10:04:21;10.30;96.10
14349;DHT22;7258;50.376;8.742;2023-04-06T10:06:28;10.40;95.40
14349;DHT22;7258;50.376;8.742;2023-04-06T10:08:37;10.50;96.20
14349;DHT22;7258;50.376;8.742;2023-04-06T10:10:42;10.50;95.20
14349;DHT22;7258;50.376;8.742;2023-04-06T10:12:47;10.60;95.20
14349;DHT22;7258;50.376;8.742;2023-04-06T10:14:53;10.70;95.60
14349;DHT22;7258;50.376;8.742;2023-04-06T10:16:58;10.80;95.50
14349;DHT22;7258;50.376;8.742;2023-04-06T10:19:06;10.90;95.20
14349;DHT22;7258;50.376;8.742;2023-04-06T10:21:15;11.00;95.30
14349;DHT22;7258;50.376;8.742;2023-04-06T10:23:30;10.90;94.40
14349;DHT22;7258;50.376;8.742;2023-04-06T10:25:35;10.90;94.70
14349;DHT22;7258;50.376;8.742;2023-04-06T10:27:39;11.10;95.50
14349;DHT22;7258;50.376;8.742;2023-04-06T10:29:43;11.20;95.10
14349;DHT22;7258;50.376;8.742;2023-04-06T10:31:48;11.20;93.80
14349;DHT22;7258;50.376;8.742;2023-04-06T10:33:54;11.20;94.40
14349;DHT22;7258;50.376;8.742;2023-04-06T10:36:08;11.20;94.20
14349;DHT22;7258;50.376;8.742;2023-04-06T10:38:11;11.30;95.00
14349;DHT22;7258;50.376;8.742;2023-04-06T10:40:19;11.20;94.60
14349;DHT22;7258;50.376;8.742;2023-04-06T10:42:36;11.30;93.70
14349;DHT22;7258;50.376;8.742;2023-04-06T10:44:42;11.30;94.50
14349;DHT22;7258;50.376;8.742;2023-04-06T10:46:52;11.40;93.10
14349;DHT22;7258;50.376;8.742;2023-04-06T10:48:57;11.30;92.90
14349;DHT22;7258;50.376;8.742;2023-04-06T10:51:00;11.50;93.40
14349;DHT22;7258;50.376;8.742;2023-04-06T10:53:03;11.60;94.00
14349;DHT22;7258;50.376;8.742;2023-04-06T10:55:07;11.70;93.20
14349;DHT22;7258;50.376;8.742;2023-04-06T10:57:12;11.70;92.90
14349;DHT22;7258;50.376;8.742;2023-04-06T10:59:20;11.80;93.20
14349;DHT22;7258;50.376;8.742;2023-04-06T11:01:24;11.90;92.50
14349;DHT22;7258;50.376;8.742;2023-04-06T11:03:43;11.90;93.80
14349;DHT22;7258;50.376;8.742;2023-04-06T11:05:48;11.90;92.50
14349;DHT22;7258;50.376;8.742;2023-04-06T11:07:55;11.90;92.20
14349;DHT22;7258;50.376;8.742;2023-04-06T11:09:58;11.90;92.60
14349;DHT22;7258;50.376;8.742;2023-04-06T11:12:21;11.80;91.40
14349;DHT22;7258;50.376;8.742;2023-04-06T11:14:26;11.80;92.00
14349;DHT22;7258;50.376;8.742;2023-04-06T11:16:31;11.90;92.20
14349;DHT22;7258;50.376;8.742;2023-04-06T11:18:35;12.10;92.30
14349;DHT22;7258;50.376;8.742;2023-04-06T11:20:47;12.10;91.50
14349;DHT22;7258;50.376;8.742;2023-04-06T11:22:50;12.10;91.70
14349;DHT22;7258;50.376;8.742;2023-04-06T11:25:04;12.30;91.20
14349;DHT22;7258;50.376;8.742;2023-04-06T11:27:07;12.30;91.30
14349;DHT22;7258;50.376;8.742;2023-04-06T11:29:12;12.50;91.20
14349;DHT22;7258;50.376;8.742;2023-04-06T11:35:03;12.70;90.50
14349;DHT22;7258;50.376;8.742;2023-04-06T11:37:37;12.80;91.00
14349;DHT22;7258;50.376;8.742;2023-04-06T11:39:57;12.90;90.50
14349;DHT22;7258;50.376;8.742;2023-04-06T11:42:27;12.90;90.00
14349;DHT22;7258;50.376;8.742;2023-04-06T11:44:43;13.00;90.00
14349;DHT22;7258;50.376;8.742;2023-04-06T11:47:12;13.20;90.20
14349;DHT22;7258;50.376;8.742;2023-04-06T11:49:26;13.20;89.10
14349;DHT22;7258;50.376;8.742;2023-04-06T11:51:54;13.10;87.20
14349;DHT22;7258;50.376;8.742;2023-04-06T11:53:58;13.00;88.90
14349;DHT22;7258;50.376;8.742;2023-04-06T11:56:01;13.00;89.70
14349;DHT22;7258;50.376;8.742;2023-04-06T11:58:33;13.10;89.50
14349;DHT22;7258;50.376;8.742;2023-04-06T12:00:51;13.30;90.10
14349;DHT22;7258;50.376;8.742;2023-04-06T12:03:34;13.40;87.50
14349;DHT22;7258;50.376;8.742;2023-04-06T12:05:51;13.50;87.20
14349;DHT22;7258;50.376;8.742;2023-04-06T12:07:58;13.60;87.00
14349;DHT22;7258;50.376;8.742;2023-04-06T12:10:42;13.60;87.20
14349;DHT22;7258;50.376;8.742;2023-04-06T12:12:48;13.60;86.70
14349;DHT22;7258;50.376;8.742;2023-04-06T12:18:05;13.40;86.50
14349;DHT22;7258;50.376;8.742;2023-04-06T12:20:28;13.30;86.30
14349;DHT22;7258;50.376;8.742;2023-04-06T12:22:43;13.30;87.30
14349;DHT22;7258;50.376;8.742;2023-04-06T12:25:17;13.30;88.10
14349;DHT22;7258;50.376;8.742;2023-04-06T12:27:26;13.40;86.00
14349;DHT22;7258;50.376;8.742;2023-04-06T12:29:38;13.50;87.00
14349;DHT22;7258;50.376;8.742;2023-04-06T12:32:05;13.70;86.00
14349;DHT22;7258;50.376;8.742;2023-04-06T12:34:14;13.80;85.10
14349;DHT22;7258;50.376;8.742;2023-04-06T12:36:58;13.80;87.40
14349;DHT22;7258;50.376;8.742;2023-04-06T12:39:14;14.00;87.40
14349;DHT22;7258;50.376;8.742;2023-04-06T12:45:06;14.20;84.30
14349;DHT22;7258;50.376;8.742;2023-04-06T12:47:16;14.30;85.10
14349;DHT22;7258;50.376;8.742;2023-04-06T12:49:26;14.20;84.80
14349;DHT22;7258;50.376;8.742;2023-04-06T12:51:37;14.10;84.30
14349;DHT22;7258;50.376;8.742;2023-04-06T12:54:24;14.00;84.50
14349;DHT22;7258;50.376;8.742;2023-04-06T12:57:07;14.10;83.00
14349;DHT22;7258;50.376;8.742;2023-04-06T12:59:16;14.00;83.30
14349;DHT22;7258;50.376;8.742;2023-04-06T13:01:33;14.10;83.70
14349;DHT22;7258;50.376;8.742;2023-04-06T13:04:28;14.10;84.00
14349;DHT22;7258;50.376;8.742;2023-04-06T13:06:52;14.10;84.40
14349;DHT22;7258;50.376;8.742;2023-04-06T13:09:05;14.30;82.60
14349;DHT22;7258;50.376;8.742;2023-04-06T13:11:49;14.30;83.40
14349;DHT22;7258;50.376;8.742;2023-04-06T13:13:57;14.30;82.90
14349;DHT22;7258;50.376;8.742;2023-04-06T13:16:14;14.30;82.70
14349;DHT22;7258;50.376;8.742;2023-04-06T13:18:27;14.20;83.00
14349;DHT22;7258;50.376;8.742;2023-04-06T13:20:43;14.40;83.20
14349;DHT22;7258;50.376;8.742;2023-04-06T13:23:21;14.40;82.80
14349;DHT22;7258;50.376;8.742;2023-04-06T13:25:32;14.60;84.10
14349;DHT22;7258;50.376;8.742;2023-04-06T13:27:56;14.60;82.70
14349;DHT22;7258;50.376;8.742;2023-04-06T13:30:13;14.60;82.20
14349;DHT22;7258;50.376;8.742;2023-04-06T13:32:30;14.50;81.50
14349;DHT22;7258;50.376;8.742;2023-04-06T13:34:46;14.50;81.30
14349;DHT22;7258;50.376;8.742;2023-04-06T13:37:11;14.40;81.30
14349;DHT22;7258;50.376;8.742;2023-04-06T13:39:17;14.30;82.10
14349;DHT22;7258;50.376;8.742;2023-04-06T13:41:29;14.20;82.20
14349;DHT22;7258;50.376;8.742;2023-04-06T13:43:46;14.20;83.70
14349;DHT22;7258;50.376;8.742;2023-04-06T13:45:54;14.20;81.70
14349;DHT22;7258;50.376;8.742;2023-04-06T13:47:59;14.20;81.40
14349;DHT22;7258;50.376;8.742;2023-04-06T13:50:05;14.30;82.00
14349;DHT22;7258;50.376;8.742;2023-04-06T13:52:08;14.30;82.70
14349;DHT22;7258;50.376;8.742;2023-04-06T13:54:12;14.40;83.30
14349;DHT22;7258;50.376;8.742;2023-04-06T13:56:15;14.40;83.30
14349;DHT22;7258;50.376;8.742;2023-04-06T13:58:18;14.50;83.10
14349;DHT22;7258;50.376;8.742;2023-04-06T14:00:21;14.40;83.30
14349;DHT22;7258;50.376;8.742;2023-04-06T14:02:25;14.40;82.40